createdAt,value
2019-02-21T00:00:53.705Z,11.10
2019-02-21T00:03:56.663Z,10.50
2019-02-21T00:07:00.357Z,11.73
2019-02-21T00:09:57.103Z,11.70
2019-02-21T00:12:52.848Z,10.90
2019-02-21T00:15:50.070Z,11.00
2019-02-21T00:18:44.968Z,11.00
2019-02-21T00:21:41.645Z,10.60
2019-02-21T00:24:39.963Z,11.30
2019-02-21T00:27:35.464Z,10.83
2019-02-21T00:30:35.159Z,11.23
2019-02-21T00:33:28.315Z,10.50
2019-02-21T00:36:24.854Z,11.80
2019-02-21T00:39:21.569Z,10.63
2019-02-21T00:42:16.893Z,10.10
2019-02-21T00:45:12.584Z,10.53
2019-02-21T00:48:10.511Z,9.40
2019-02-21T00:51:06.221Z,10.65
2019-02-21T00:54:03.984Z,9.47
2019-02-21T00:56:59.455Z,10.50
2019-02-21T00:59:56.020Z,10.20
2019-02-21T01:02:52.554Z,10.13
2019-02-21T01:05:48.624Z,10.55
2019-02-21T01:08:45.345Z,10.67
2019-02-21T01:11:42.001Z,9.60
2019-02-21T01:14:38.648Z,10.70
2019-02-21T01:17:35.431Z,9.93
2019-02-21T01:20:32.179Z,9.23
2019-02-21T01:23:28.658Z,10.25
2019-02-21T01:26:24.276Z,9.70
2019-02-21T01:29:21.608Z,10.23
2019-02-21T01:32:16.653Z,10.87
2019-02-21T01:35:14.205Z,11.30
2019-02-21T01:38:21.682Z,10.70
2019-02-21T01:41:16.723Z,12.70
2019-02-21T01:44:13.474Z,10.07
2019-02-21T01:47:09.282Z,12.17
2019-02-21T01:50:05.794Z,11.03
2019-02-21T01:53:01.307Z,10.60
2019-02-21T01:55:56.784Z,10.87
2019-02-21T01:58:53.321Z,11.00
2019-02-21T02:01:49.201Z,12.00
2019-02-21T02:04:46.540Z,10.93
2019-02-21T02:07:42.307Z,10.73
2019-02-21T02:10:39.079Z,12.00
2019-02-21T02:13:35.457Z,11.60
2019-02-21T02:16:39.100Z,12.37
2019-02-21T02:19:46.970Z,14.00
2019-02-21T02:22:44.765Z,13.97
2019-02-21T02:25:41.212Z,12.47
2019-02-21T02:28:38.830Z,13.97
2019-02-21T02:31:35.053Z,14.40
2019-02-21T02:34:31.757Z,13.30
2019-02-21T02:37:28.294Z,15.20
2019-02-21T02:40:23.871Z,15.10
2019-02-21T02:43:20.192Z,15.03
2019-02-21T02:46:16.511Z,15.57
2019-02-21T02:49:14.312Z,14.10
2019-02-21T02:52:09.835Z,14.17
2019-02-21T02:55:07.560Z,15.67
2019-02-21T02:58:06.415Z,14.67
2019-02-21T03:01:00.821Z,14.30
2019-02-21T03:03:58.435Z,13.70
2019-02-21T03:06:54.824Z,12.43
2019-02-21T03:09:51.489Z,13.35
2019-02-21T03:12:46.621Z,12.70
2019-02-21T03:15:44.323Z,13.03
2019-02-21T03:18:40.896Z,12.27
2019-02-21T03:21:37.393Z,12.07
2019-02-21T03:24:33.808Z,12.40
2019-02-21T03:27:29.579Z,12.83
2019-02-21T03:30:27.208Z,11.83
2019-02-21T03:33:22.971Z,11.47
2019-02-21T03:36:18.777Z,12.23
2019-02-21T03:39:15.334Z,11.20
2019-02-21T03:42:11.898Z,11.60
2019-02-21T03:45:14.554Z,13.07
2019-02-21T03:48:10.020Z,12.13
2019-02-21T03:51:06.471Z,11.67
2019-02-21T03:54:01.796Z,11.07
2019-02-21T03:56:58.898Z,11.10
2019-02-21T03:59:54.590Z,10.30
2019-02-21T04:02:50.977Z,10.80
2019-02-21T04:05:48.205Z,10.90
2019-02-21T04:08:43.679Z,10.60
2019-02-21T04:11:40.429Z,10.63
2019-02-21T04:14:37.434Z,12.35
2019-02-21T04:17:33.986Z,10.83
2019-02-21T04:20:30.519Z,11.37
2019-02-21T04:23:28.047Z,10.37
2019-02-21T04:26:35.552Z,11.63
2019-02-21T04:29:34.129Z,11.03
2019-02-21T04:32:30.501Z,11.73
2019-02-21T04:35:26.176Z,12.07
2019-02-21T04:38:22.882Z,12.33
2019-02-21T04:41:18.305Z,13.20
2019-02-21T04:44:14.091Z,13.13
2019-02-21T04:47:11.811Z,11.93
2019-02-21T04:50:07.306Z,12.13
2019-02-21T04:53:04.127Z,13.33
2019-02-21T04:55:59.661Z,12.37
2019-02-21T04:58:56.259Z,12.03
2019-02-21T05:01:53.047Z,10.80
2019-02-21T05:04:47.604Z,11.10
2019-02-21T05:07:46.308Z,11.53
2019-02-21T05:10:42.117Z,11.60
2019-02-21T05:13:38.940Z,11.65
2019-02-21T05:16:34.758Z,11.10
2019-02-21T05:19:31.506Z,12.53
2019-02-21T05:22:31.226Z,11.57
2019-02-21T05:25:27.808Z,12.13
2019-02-21T05:28:33.662Z,12.03
2019-02-21T05:31:51.438Z,11.50
2019-02-21T05:35:09.769Z,12.55
2019-02-21T05:38:18.647Z,11.40
2019-02-21T05:41:35.861Z,10.47
2019-02-21T05:44:47.180Z,12.00
2019-02-21T05:48:10.153Z,10.67
2019-02-21T05:51:19.262Z,10.70
2019-02-21T05:54:36.518Z,12.00
2019-02-21T05:57:58.954Z,11.60
2019-02-21T06:01:04.803Z,12.23
2019-02-21T06:04:14.110Z,13.37
2019-02-21T06:07:20.519Z,13.10
2019-02-21T06:10:44.145Z,12.40
2019-02-21T06:14:03.090Z,13.37
2019-02-21T06:17:14.748Z,14.00
2019-02-21T06:20:25.241Z,12.57
2019-02-21T06:23:31.713Z,11.40
2019-02-21T06:26:35.267Z,12.13
2019-02-21T06:29:41.710Z,10.60
2019-02-21T06:32:40.928Z,10.90
2019-02-21T06:35:36.717Z,11.75
2019-02-21T06:38:44.630Z,10.87
2019-02-21T06:41:59.137Z,10.77
2019-02-21T06:44:47.056Z,11.90
2019-02-21T06:47:43.791Z,12.77
2019-02-21T06:50:40.536Z,12.83
2019-02-21T06:53:35.792Z,12.47
2019-02-21T06:56:32.370Z,12.50
2019-02-21T06:59:27.837Z,15.60
2019-02-21T07:02:24.650Z,14.00
2019-02-21T07:05:19.463Z,13.80
2019-02-21T07:08:16.188Z,12.80
2019-02-21T07:11:13.736Z,14.80
2019-02-21T07:14:10.395Z,13.23
2019-02-21T07:17:08.545Z,13.90
2019-02-21T07:20:03.399Z,15.17
2019-02-21T07:23:05.030Z,14.10
2019-02-21T07:26:05.698Z,14.90
2019-02-21T07:29:03.448Z,13.80
2019-02-21T07:32:05.065Z,13.47
2019-02-21T07:35:00.730Z,18.00
2019-02-21T07:37:57.268Z,18.67
2019-02-21T07:40:54.119Z,18.40
2019-02-21T07:43:49.085Z,19.63
2019-02-21T07:46:46.415Z,19.80
2019-02-21T07:49:43.391Z,19.60
2019-02-21T07:52:40.131Z,19.13
2019-02-21T07:55:35.833Z,19.50
2019-02-21T07:58:32.366Z,17.90
2019-02-21T08:01:28.839Z,20.10
2019-02-21T08:04:24.118Z,19.60
2019-02-21T08:07:21.009Z,21.17
2019-02-21T08:10:16.552Z,21.30
2019-02-21T08:13:14.093Z,22.00
2019-02-21T08:16:12.381Z,22.20
2019-02-21T08:19:07.017Z,22.67
2019-02-21T08:22:03.814Z,21.53
2019-02-21T08:24:59.209Z,21.67
2019-02-21T08:27:55.713Z,22.27
2019-02-21T08:30:52.671Z,20.57
2019-02-21T08:34:04.103Z,21.17
2019-02-21T08:36:57.974Z,22.63
2019-02-21T08:39:53.454Z,24.10
2019-02-21T08:42:50.018Z,22.50
2019-02-21T08:45:45.797Z,23.87
2019-02-21T08:48:42.569Z,23.10
2019-02-21T08:51:40.129Z,24.13
2019-02-21T08:54:41.816Z,24.40
2019-02-21T08:57:38.363Z,25.37
2019-02-21T09:00:33.270Z,23.90
2019-02-21T09:03:29.907Z,24.70
2019-02-21T09:06:26.343Z,24.60
2019-02-21T09:09:22.861Z,24.50
2019-02-21T09:12:19.889Z,26.13
2019-02-21T09:15:16.656Z,25.00
2019-02-21T09:18:13.991Z,25.23
2019-02-21T09:21:10.760Z,24.37
2019-02-21T09:24:07.250Z,24.63
2019-02-21T09:27:04.094Z,24.77
2019-02-21T09:29:59.592Z,25.80
2019-02-21T09:32:58.115Z,25.20
2019-02-21T09:35:56.754Z,24.83
2019-02-21T09:38:51.497Z,24.63
2019-02-21T09:41:49.494Z,22.80
2019-02-21T09:44:44.914Z,22.82
2019-02-21T09:47:41.667Z,21.30
2019-02-21T09:50:37.802Z,22.53
2019-02-21T09:53:34.209Z,22.07
2019-02-21T09:56:33.176Z,23.40
2019-02-21T09:59:28.963Z,22.20
2019-02-21T10:02:26.262Z,22.23
2019-02-21T10:05:22.010Z,21.37
2019-02-21T10:08:18.725Z,21.33
2019-02-21T10:11:16.462Z,19.12
2019-02-21T10:14:10.987Z,17.83
2019-02-21T10:17:07.470Z,17.20
2019-02-21T10:20:04.285Z,17.70
2019-02-21T10:23:00.289Z,15.27
2019-02-21T10:25:55.854Z,14.27
2019-02-21T10:28:52.376Z,14.67
2019-02-21T10:31:49.149Z,14.33
2019-02-21T10:34:45.931Z,13.53
2019-02-21T10:37:42.280Z,14.17
2019-02-21T10:40:37.314Z,14.23
2019-02-21T10:43:33.891Z,14.50
2019-02-21T10:46:31.020Z,14.20
2019-02-21T10:49:25.995Z,13.27
2019-02-21T10:52:22.636Z,13.83
2019-02-21T10:55:18.386Z,14.40
2019-02-21T10:58:14.886Z,14.00
2019-02-21T11:01:10.622Z,12.28
2019-02-21T11:04:12.976Z,12.90
2019-02-21T11:07:08.475Z,15.03
2019-02-21T11:10:05.265Z,13.70
2019-02-21T11:13:02.009Z,12.60
2019-02-21T11:15:57.734Z,11.77
2019-02-21T11:18:54.732Z,11.33
2019-02-21T11:21:50.506Z,11.20
2019-02-21T11:24:48.197Z,10.83
2019-02-21T11:27:43.680Z,10.80
2019-02-21T11:30:39.996Z,10.57
2019-02-21T11:33:36.704Z,10.10
2019-02-21T11:36:33.298Z,10.13
2019-02-21T11:39:29.921Z,12.37
2019-02-21T11:42:25.427Z,11.23
2019-02-21T11:45:21.878Z,11.03
2019-02-21T11:48:17.586Z,11.40
2019-02-21T11:51:14.394Z,9.73
2019-02-21T11:54:10.257Z,10.40
2019-02-21T11:57:07.044Z,10.77
2019-02-21T12:00:03.785Z,11.60
2019-02-21T12:03:00.421Z,11.53
2019-02-21T12:05:56.612Z,11.00
2019-02-21T12:08:52.377Z,13.00
2019-02-21T12:11:48.906Z,12.23
2019-02-21T12:14:43.543Z,11.40
2019-02-21T12:17:48.771Z,13.27
2019-02-21T12:20:45.331Z,11.87
2019-02-21T12:23:43.493Z,10.35
2019-02-21T12:26:38.661Z,12.67
2019-02-21T12:29:35.454Z,10.20
2019-02-21T12:32:31.882Z,11.60
2019-02-21T12:35:29.815Z,10.37
2019-02-21T12:38:26.287Z,10.55
2019-02-21T12:41:22.235Z,9.83
2019-02-21T12:44:19.086Z,9.50
2019-02-21T12:47:15.927Z,10.30
2019-02-21T12:50:13.804Z,11.28
2019-02-21T12:53:10.905Z,11.93
2019-02-21T12:56:06.515Z,10.80
2019-02-21T12:59:03.200Z,10.70
2019-02-21T13:01:58.958Z,10.80
2019-02-21T13:04:56.807Z,11.70
2019-02-21T13:07:52.795Z,11.80
2019-02-21T13:10:49.617Z,12.23
2019-02-21T13:13:46.166Z,11.43
2019-02-21T13:16:44.095Z,11.55
2019-02-21T13:19:39.943Z,11.27
2019-02-21T13:22:35.433Z,11.07
2019-02-21T13:25:32.059Z,11.40
2019-02-21T13:28:27.859Z,11.50
2019-02-21T13:31:24.627Z,11.67
2019-02-21T13:34:21.139Z,12.83
2019-02-21T13:37:28.226Z,12.28
2019-02-21T13:40:15.374Z,11.50
2019-02-21T13:43:10.103Z,12.30
2019-02-21T13:46:06.914Z,12.47
2019-02-21T13:49:02.440Z,12.73
2019-02-21T13:51:58.764Z,12.23
2019-02-21T13:54:55.264Z,12.60
2019-02-21T13:57:52.204Z,12.82
2019-02-21T14:00:47.947Z,12.87
2019-02-21T14:03:43.595Z,12.70
2019-02-21T14:06:40.814Z,12.67
2019-02-21T14:09:38.027Z,11.40
2019-02-21T14:12:34.277Z,12.53
2019-02-21T14:15:34.219Z,13.10
2019-02-21T14:18:31.069Z,13.03
2019-02-21T14:21:26.612Z,13.23
2019-02-21T14:24:35.977Z,13.13
2019-02-21T14:27:19.792Z,14.03
2019-02-21T14:30:16.346Z,15.67
2019-02-21T14:33:12.492Z,11.97
2019-02-21T14:36:15.973Z,12.20
2019-02-21T14:39:05.915Z,13.00
2019-02-21T14:42:04.307Z,11.70
2019-02-21T14:44:58.917Z,12.50
2019-02-21T14:47:54.831Z,12.43
2019-02-21T14:50:51.650Z,12.37
2019-02-21T14:53:48.490Z,12.30
2019-02-21T14:56:43.799Z,12.13
2019-02-21T14:59:40.364Z,12.07
2019-02-21T15:02:35.941Z,13.07
2019-02-21T15:05:33.554Z,12.17
2019-02-21T15:08:29.371Z,12.20
2019-02-21T15:11:26.285Z,11.80
2019-02-21T15:14:22.073Z,12.83
2019-02-21T15:17:21.325Z,12.37
2019-02-21T15:20:17.661Z,12.70
2019-02-21T15:23:14.375Z,12.37
2019-02-21T15:26:11.977Z,12.10
2019-02-21T15:29:07.697Z,12.10
2019-02-21T15:32:11.204Z,12.53
2019-02-21T15:35:01.242Z,11.77
2019-02-21T15:37:57.480Z,10.80
2019-02-21T15:40:54.078Z,11.67
2019-02-21T15:43:50.639Z,11.97
2019-02-21T15:46:46.294Z,11.87
2019-02-21T15:49:41.349Z,11.80
2019-02-21T15:52:38.148Z,13.27
2019-02-21T15:55:35.606Z,12.57
2019-02-21T15:58:31.389Z,12.53
2019-02-21T16:01:28.130Z,13.47
2019-02-21T16:04:23.676Z,14.50
2019-02-21T16:07:21.611Z,14.03
2019-02-21T16:10:17.955Z,12.70
2019-02-21T16:13:13.633Z,14.60
2019-02-21T16:16:09.456Z,13.83
2019-02-21T16:19:07.126Z,15.33
2019-02-21T16:22:03.763Z,15.43
2019-02-21T16:24:59.342Z,14.90
2019-02-21T16:27:56.226Z,14.73
2019-02-21T16:30:52.755Z,15.47
2019-02-21T16:33:48.360Z,15.20
2019-02-21T16:36:44.057Z,15.30
2019-02-21T16:39:39.732Z,15.03
2019-02-21T16:42:36.293Z,15.13
2019-02-21T16:45:42.994Z,15.50
2019-02-21T16:48:30.401Z,14.70
2019-02-21T16:51:25.804Z,15.70
2019-02-21T16:54:22.375Z,15.45
2019-02-21T16:57:18.807Z,15.30
2019-02-21T17:00:15.350Z,16.00
2019-02-21T17:03:11.692Z,15.40
2019-02-21T17:06:07.500Z,16.00
2019-02-21T17:09:04.073Z,15.15
2019-02-21T17:11:59.841Z,16.70
2019-02-21T17:14:57.629Z,18.87
2019-02-21T17:17:53.153Z,19.70
2019-02-21T17:20:50.816Z,19.40
2019-02-21T17:23:46.601Z,18.87
2019-02-21T17:26:44.023Z,18.27
2019-02-21T17:29:41.620Z,17.43
2019-02-21T17:32:41.446Z,18.57
2019-02-21T17:35:37.943Z,17.10
2019-02-21T17:38:34.750Z,17.93
2019-02-21T17:41:31.478Z,18.83
2019-02-21T17:44:27.145Z,17.02
2019-02-21T17:47:24.839Z,17.73
2019-02-21T17:50:20.355Z,18.57
2019-02-21T17:53:18.846Z,17.92
2019-02-21T17:56:15.503Z,17.23
2019-02-21T17:59:11.035Z,18.40
2019-02-21T18:02:14.674Z,20.07
2019-02-21T18:05:17.177Z,19.63
2019-02-21T18:08:14.587Z,21.00
2019-02-21T18:11:12.604Z,21.30
2019-02-21T18:14:06.811Z,21.07
2019-02-21T18:17:04.515Z,21.35
2019-02-21T18:20:00.993Z,20.17
2019-02-21T18:22:57.643Z,20.00
2019-02-21T18:26:00.917Z,19.67
2019-02-21T18:28:58.790Z,19.07
2019-02-21T18:31:55.226Z,17.03
2019-02-21T18:34:50.830Z,17.13
2019-02-21T18:37:48.297Z,19.57
2019-02-21T18:40:43.205Z,19.07
2019-02-21T18:43:39.712Z,20.37
2019-02-21T18:46:35.271Z,19.07
2019-02-21T18:49:32.889Z,19.17
2019-02-21T18:52:28.087Z,19.03
2019-02-21T18:55:24.739Z,19.80
2019-02-21T18:58:21.492Z,20.60
2019-02-21T19:01:17.298Z,19.83
2019-02-21T19:04:13.936Z,19.73
2019-02-21T19:07:09.488Z,20.32
2019-02-21T19:10:06.322Z,22.47
2019-02-21T19:13:01.966Z,21.93
2019-02-21T19:15:59.531Z,19.93
2019-02-21T19:18:56.145Z,20.37
2019-02-21T19:21:53.782Z,21.77
2019-02-21T19:24:49.898Z,21.00
2019-02-21T19:27:45.654Z,21.80
2019-02-21T19:30:46.892Z,21.03
2019-02-21T19:33:42.810Z,21.30
2019-02-21T19:36:39.714Z,22.53
2019-02-21T19:39:35.390Z,23.37
2019-02-21T19:42:33.783Z,24.47
2019-02-21T19:45:30.816Z,22.70
2019-02-21T19:48:26.795Z,22.48
2019-02-21T19:51:25.567Z,23.47
2019-02-21T19:54:21.251Z,22.57
2019-02-21T19:57:18.140Z,24.15
2019-02-21T20:00:13.836Z,24.53
2019-02-21T20:03:15.670Z,23.70
2019-02-21T20:06:16.646Z,23.00
2019-02-21T20:09:14.227Z,23.50
2019-02-21T20:12:11.870Z,23.83
2019-02-21T20:15:07.660Z,23.43
2019-02-21T20:18:05.565Z,24.00
2019-02-21T20:21:01.310Z,25.30
2019-02-21T20:23:58.167Z,23.63
2019-02-21T20:26:53.910Z,22.70
2019-02-21T20:29:50.499Z,22.03
2019-02-21T20:32:50.411Z,21.30
2019-02-21T20:35:46.361Z,20.00
2019-02-21T20:38:43.288Z,19.60
2019-02-21T20:41:40.947Z,19.00
2019-02-21T20:44:37.569Z,18.87
2019-02-21T20:47:34.608Z,20.62
2019-02-21T20:50:31.188Z,22.60
2019-02-21T20:53:28.822Z,24.07
2019-02-21T20:56:24.596Z,22.67
2019-02-21T20:59:21.379Z,23.10
2019-02-21T21:02:18.703Z,22.40
2019-02-21T21:05:14.746Z,22.83
2019-02-21T21:08:10.699Z,21.80
2019-02-21T21:11:07.261Z,23.30
2019-02-21T21:14:03.876Z,21.77
2019-02-21T21:17:00.314Z,20.90
2019-02-21T21:19:56.152Z,21.60
2019-02-21T21:22:52.599Z,20.63
2019-02-21T21:25:48.437Z,21.17
2019-02-21T21:28:44.049Z,22.67
2019-02-21T21:31:40.566Z,21.40
2019-02-21T21:34:36.084Z,22.63
2019-02-21T21:37:32.818Z,23.60
2019-02-21T21:40:29.506Z,23.50
2019-02-21T21:43:25.963Z,23.83
2019-02-21T21:46:22.830Z,24.00
2019-02-21T21:49:17.866Z,23.83
2019-02-21T21:52:14.200Z,35.60
2019-02-21T21:55:13.695Z,35.80
2019-02-21T21:58:12.879Z,24.97
2019-02-21T22:01:06.092Z,25.92
2019-02-21T22:04:03.909Z,28.83
2019-02-21T22:07:00.520Z,22.30
2019-02-21T22:09:55.755Z,25.60
2019-02-21T22:12:53.494Z,23.23
2019-02-21T22:15:48.004Z,21.37
2019-02-21T22:18:46.482Z,21.87
2019-02-21T22:21:42.827Z,23.37
2019-02-21T22:24:40.269Z,22.40
2019-02-21T22:27:38.033Z,23.67
2019-02-21T22:30:33.753Z,23.40
2019-02-21T22:33:31.043Z,22.70
2019-02-21T22:36:26.442Z,23.27
2019-02-21T22:39:22.967Z,21.83
2019-02-21T22:42:18.257Z,22.60
2019-02-21T22:45:14.844Z,21.17
2019-02-21T22:48:10.419Z,22.35
2019-02-21T22:51:07.015Z,21.33
2019-02-21T22:54:04.606Z,20.57
2019-02-21T22:57:01.313Z,23.83
2019-02-21T22:59:58.076Z,22.67
2019-02-21T23:02:54.892Z,24.50
2019-02-21T23:06:20.100Z,22.23
2019-02-21T23:09:15.137Z,20.90
2019-02-21T23:12:11.825Z,21.50
2019-02-21T23:15:07.311Z,22.67
2019-02-21T23:18:04.897Z,21.27
2019-02-21T23:21:01.666Z,22.00
2019-02-21T23:23:57.874Z,20.47
2019-02-21T23:26:54.573Z,21.70
2019-02-21T23:29:49.673Z,21.13
2019-02-21T23:32:46.246Z,20.00
2019-02-21T23:35:41.757Z,19.40
2019-02-21T23:38:39.565Z,19.30
2019-02-21T23:41:36.290Z,18.50
2019-02-21T23:44:32.843Z,19.57
2019-02-21T23:47:30.407Z,20.70
2019-02-21T23:50:26.122Z,17.73
2019-02-21T23:53:21.841Z,19.50
2019-02-21T23:56:16.864Z,19.50
2019-02-21T23:59:14.689Z,18.93
